createdAt,value
2022-09-15T00:00:31.124Z,99198.69
2022-09-15T00:03:18.298Z,99193.94
2022-09-15T00:05:45.357Z,99191.50
2022-09-15T00:08:15.727Z,99170.69
2022-09-15T00:10:58.463Z,99178.44
2022-09-15T00:13:25.848Z,99159.03
2022-09-15T00:15:53.549Z,99140.19
2022-09-15T00:18:20.781Z,99099.16
2022-09-15T00:20:47.830Z,99111.13
2022-09-15T00:23:15.957Z,99118.38
2022-09-15T00:25:51.086Z,99114.38
2022-09-15T00:28:21.108Z,99121.09
2022-09-15T00:30:51.887Z,99129.44
2022-09-15T00:33:20.759Z,99160.72
2022-09-15T00:35:50.625Z,99182.72
2022-09-15T00:38:18.639Z,99187.06
2022-09-15T00:40:51.221Z,99215.16
2022-09-15T00:43:21.213Z,99208.38
2022-09-15T00:45:48.823Z,99222.91
2022-09-15T00:48:22.525Z,99235.41
2022-09-15T00:50:55.139Z,99243.59
2022-09-15T00:53:23.782Z,99248.91
2022-09-15T00:55:51.306Z,99248.78
2022-09-15T00:58:25.583Z,99243.81
2022-09-15T01:00:59.129Z,99237.75
2022-09-15T01:03:27.450Z,99236.59
2022-09-15T01:06:03.865Z,99244.78
2022-09-15T01:08:44.512Z,99243.25
2022-09-15T01:11:11.589Z,99230.56
2022-09-15T01:13:38.351Z,99252.13
2022-09-15T01:16:29.991Z,99257.00
2022-09-15T01:19:12.436Z,99238.97
2022-09-15T01:21:46.796Z,99240.41
2022-09-15T01:24:41.609Z,99250.50
2022-09-15T01:27:37.761Z,99243.34
2022-09-15T01:30:19.471Z,99238.88
2022-09-15T01:33:05.296Z,99238.59
2022-09-15T01:36:05.046Z,99231.97
2022-09-15T01:38:46.191Z,99228.63
2022-09-15T01:41:25.479Z,99227.81
2022-09-15T01:44:03.780Z,99233.06
2022-09-15T01:46:34.885Z,99237.59
2022-09-15T01:49:03.526Z,99245.66
2022-09-15T01:51:32.238Z,99246.03
2022-09-15T01:54:01.396Z,99244.72
2022-09-15T01:56:28.552Z,99235.22
2022-09-15T01:58:55.311Z,99239.59
2022-09-15T02:01:50.106Z,99245.75
2022-09-15T02:04:41.399Z,99248.13
2022-09-15T02:07:28.627Z,99245.44
2022-09-15T02:10:13.722Z,99249.25
2022-09-15T02:13:05.173Z,99247.75
2022-09-15T02:15:47.979Z,99245.72
2022-09-15T02:18:22.735Z,99239.75
2022-09-15T02:20:58.516Z,99236.03
2022-09-15T02:23:31.381Z,99233.84
2022-09-15T02:26:14.124Z,99242.06
2022-09-15T02:28:43.158Z,99240.63
2022-09-15T02:31:13.880Z,99245.47
2022-09-15T02:33:44.744Z,99245.34
2022-09-15T02:36:14.944Z,99236.94
2022-09-15T02:38:54.392Z,99247.34
2022-09-15T02:41:21.378Z,99252.72
2022-09-15T02:43:49.289Z,99254.19
2022-09-15T02:46:19.302Z,99256.03
2022-09-15T02:48:46.656Z,99251.91
2022-09-15T02:51:14.364Z,99249.47
2022-09-15T02:53:42.717Z,99257.50
2022-09-15T02:56:10.095Z,99252.44
2022-09-15T02:58:36.922Z,99249.19
2022-09-15T03:01:05.889Z,99248.81
2022-09-15T03:03:34.175Z,99239.84
2022-09-15T03:06:16.930Z,99243.00
2022-09-15T03:08:48.598Z,99235.31
2022-09-15T03:11:16.044Z,99242.59
2022-09-15T03:13:43.149Z,99241.28
2022-09-15T03:16:12.189Z,99238.53
2022-09-15T03:18:40.205Z,99243.25
2022-09-15T03:21:10.470Z,99245.69
2022-09-15T03:23:37.530Z,99246.25
2022-09-15T03:26:04.799Z,99242.47
2022-09-15T03:28:32.176Z,99249.13
2022-09-15T03:30:59.107Z,99245.25
2022-09-15T03:33:26.014Z,99251.75
2022-09-15T03:35:56.293Z,99240.13
2022-09-15T03:38:23.482Z,99245.69
2022-09-15T03:41:03.547Z,99242.28
2022-09-15T03:43:32.100Z,99239.72
2022-09-15T03:45:59.525Z,99240.97
2022-09-15T03:48:27.792Z,99242.06
2022-09-15T03:50:54.840Z,99234.25
2022-09-15T03:53:21.572Z,99231.94
2022-09-15T03:55:49.552Z,99242.34
2022-09-15T03:58:18.506Z,99240.44
2022-09-15T04:00:46.557Z,99244.38
2022-09-15T04:03:13.683Z,99247.75
2022-09-15T04:05:40.760Z,99241.81
2022-09-15T04:08:07.524Z,99249.25
2022-09-15T04:10:35.055Z,99255.53
2022-09-15T04:13:01.991Z,99262.03
2022-09-15T04:15:28.733Z,99265.53
2022-09-15T04:17:55.876Z,99263.34
2022-09-15T04:20:22.783Z,99259.41
2022-09-15T04:22:50.247Z,99262.81
2022-09-15T04:25:17.108Z,99249.09
2022-09-15T04:27:44.091Z,99247.75
2022-09-15T04:30:11.281Z,99251.91
2022-09-15T04:32:38.051Z,99260.41
2022-09-15T04:35:05.528Z,99271.78
2022-09-15T04:37:32.658Z,99272.78
2022-09-15T04:39:59.618Z,99280.53
2022-09-15T04:42:26.932Z,99274.94
2022-09-15T04:44:53.726Z,99284.91
2022-09-15T04:47:20.749Z,99273.72
2022-09-15T04:49:47.681Z,99269.38
2022-09-15T04:52:14.448Z,99262.56
2022-09-15T04:54:41.177Z,99267.44
2022-09-15T04:57:09.501Z,99266.06
2022-09-15T04:59:36.409Z,99262.84
2022-09-15T05:02:03.810Z,99256.66
2022-09-15T05:04:30.837Z,99258.59
2022-09-15T05:06:57.623Z,99256.47
2022-09-15T05:09:25.273Z,99251.94
2022-09-15T05:11:52.197Z,99255.28
2022-09-15T05:14:19.014Z,99267.84
2022-09-15T05:16:45.789Z,99265.53
2022-09-15T05:19:12.823Z,99268.31
2022-09-15T05:21:39.862Z,99285.47
2022-09-15T05:24:07.009Z,99295.38
2022-09-15T05:26:33.969Z,99313.47
2022-09-15T05:29:00.754Z,99312.47
2022-09-15T05:31:31.255Z,99311.81
2022-09-15T05:34:00.439Z,99315.69
2022-09-15T05:36:27.152Z,99324.91
2022-09-15T05:38:56.659Z,99325.28
2022-09-15T05:41:25.346Z,99330.63
2022-09-15T05:43:54.122Z,99333.66
2022-09-15T05:46:20.985Z,99323.31
2022-09-15T05:48:48.096Z,99321.22
2022-09-15T05:51:15.137Z,99335.63
2022-09-15T05:53:42.167Z,99326.00
2022-09-15T05:56:14.106Z,99321.06
2022-09-15T05:58:42.493Z,99319.25
2022-09-15T06:01:22.842Z,99314.31
2022-09-15T06:03:50.208Z,99308.94
2022-09-15T06:06:17.664Z,99309.41
2022-09-15T06:08:56.828Z,99311.56
2022-09-15T06:11:33.766Z,99306.56
2022-09-15T06:14:03.084Z,99329.44
2022-09-15T06:16:33.626Z,99327.88
2022-09-15T06:19:01.248Z,99316.44
2022-09-15T06:21:29.763Z,99322.28
2022-09-15T06:24:03.287Z,99312.84
2022-09-15T06:26:30.200Z,99316.94
2022-09-15T06:28:59.334Z,99326.25
2022-09-15T06:31:28.939Z,99335.81
2022-09-15T06:33:57.636Z,99356.16
2022-09-15T06:36:27.980Z,99348.47
2022-09-15T06:38:55.666Z,99346.78
2022-09-15T06:41:22.797Z,99342.09
2022-09-15T06:43:49.848Z,99350.06
2022-09-15T06:46:23.073Z,99346.81
2022-09-15T06:48:51.904Z,99352.25
2022-09-15T06:51:20.510Z,99352.44
2022-09-15T06:53:47.519Z,99351.63
2022-09-15T06:56:17.015Z,99361.16
2022-09-15T06:58:44.955Z,99362.25
2022-09-15T07:01:20.635Z,99375.41
2022-09-15T07:03:48.075Z,99367.63
2022-09-15T07:06:14.937Z,99354.69
2022-09-15T07:08:42.379Z,99351.81
2022-09-15T07:11:10.429Z,99358.78
2022-09-15T07:13:37.307Z,99365.97
2022-09-15T07:16:06.243Z,99366.88
2022-09-15T07:18:33.604Z,99380.59
2022-09-15T07:21:02.147Z,99378.47
2022-09-15T07:23:29.177Z,99378.69
2022-09-15T07:26:20.175Z,99375.47
2022-09-15T07:28:50.254Z,99380.69
2022-09-15T07:31:19.973Z,99381.44
2022-09-15T07:33:47.314Z,99380.56
2022-09-15T07:36:15.056Z,99379.47
2022-09-15T07:38:44.118Z,99388.66
2022-09-15T07:41:22.110Z,99386.94
2022-09-15T07:43:50.949Z,99395.88
2022-09-15T07:46:19.186Z,99392.31
2022-09-15T07:48:47.852Z,99385.34
2022-09-15T07:51:15.498Z,99388.75
2022-09-15T07:53:43.148Z,99393.25
2022-09-15T07:56:10.229Z,99386.78
2022-09-15T07:58:37.136Z,99392.47
2022-09-15T08:01:05.506Z,99401.03
2022-09-15T08:03:32.699Z,99394.13
2022-09-15T08:06:00.892Z,99398.47
2022-09-15T08:08:28.584Z,99399.00
2022-09-15T08:10:55.734Z,99395.53
2022-09-15T08:13:24.321Z,99387.66
2022-09-15T08:15:52.241Z,99394.44
2022-09-15T08:18:19.112Z,99393.31
2022-09-15T08:20:46.065Z,99389.22
2022-09-15T08:23:12.949Z,99394.44
2022-09-15T08:25:39.714Z,99401.25
2022-09-15T08:28:06.789Z,99390.03
2022-09-15T08:30:33.635Z,99387.81
2022-09-15T08:33:00.432Z,99389.34
2022-09-15T08:35:27.550Z,99392.03
2022-09-15T08:37:55.195Z,99394.75
2022-09-15T08:40:36.193Z,99376.28
2022-09-15T08:43:15.479Z,99364.88
2022-09-15T08:45:52.279Z,99368.63
2022-09-15T08:48:25.547Z,99375.69
2022-09-15T08:50:54.789Z,99377.31
2022-09-15T08:53:46.560Z,99376.50
2022-09-15T08:56:17.892Z,99369.38
2022-09-15T08:58:46.333Z,99364.38
2022-09-15T09:01:18.949Z,99362.25
2022-09-15T09:03:55.246Z,99348.47
2022-09-15T09:07:06.933Z,99342.41
2022-09-15T09:10:01.627Z,99338.91
2022-09-15T09:12:32.627Z,99334.59
2022-09-15T09:14:59.497Z,99336.97
2022-09-15T09:17:26.166Z,99333.75
2022-09-15T09:20:17.345Z,99326.16
2022-09-15T09:22:48.491Z,99323.91
2022-09-15T09:25:27.225Z,99319.28
2022-09-15T09:27:58.335Z,99314.38
2022-09-15T09:30:29.659Z,99300.88
2022-09-15T09:33:29.879Z,99308.69
2022-09-15T09:35:59.996Z,99313.53
2022-09-15T09:38:37.847Z,99311.75
2022-09-15T09:41:19.673Z,99320.94
2022-09-15T09:43:48.799Z,99317.81
2022-09-15T09:46:20.332Z,99324.31
2022-09-15T09:48:54.463Z,99319.28
2022-09-15T09:51:49.030Z,99312.34
2022-09-15T09:54:20.635Z,99300.47
2022-09-15T09:56:49.663Z,99303.94
2022-09-15T09:59:44.077Z,99295.16
2022-09-15T10:02:11.051Z,99287.75
2022-09-15T10:04:39.070Z,99297.56
2022-09-15T10:07:07.507Z,99282.56
2022-09-15T10:09:34.911Z,99285.97
2022-09-15T10:12:04.356Z,99272.22
2022-09-15T10:14:35.295Z,99271.38
2022-09-15T10:17:15.763Z,99268.22
2022-09-15T10:19:50.707Z,99260.75
2022-09-15T10:22:39.908Z,99258.28
2022-09-15T10:25:39.526Z,99241.44
2022-09-15T10:28:17.005Z,99227.63
2022-09-15T10:31:02.817Z,99223.97
2022-09-15T10:33:32.905Z,99227.94
2022-09-15T10:36:05.863Z,99233.84
2022-09-15T10:38:41.794Z,99231.31
2022-09-15T10:41:20.493Z,99236.56
2022-09-15T10:43:56.340Z,99237.13
2022-09-15T10:46:44.055Z,99242.06
2022-09-15T10:49:39.440Z,99247.13
2022-09-15T10:52:37.757Z,99248.50
2022-09-15T10:56:03.294Z,99249.25
2022-09-15T10:58:56.755Z,99247.03
2022-09-15T11:01:23.549Z,99243.78
2022-09-15T11:04:12.307Z,99236.94
2022-09-15T11:07:10.137Z,99235.59
2022-09-15T11:10:02.960Z,99239.16
2022-09-15T11:13:16.374Z,99229.50
2022-09-15T11:16:34.883Z,99227.38
2022-09-15T11:19:07.452Z,99227.75
2022-09-15T11:21:41.090Z,99231.16
2022-09-15T11:24:10.723Z,99241.47
2022-09-15T11:26:44.596Z,99244.00
2022-09-15T11:29:28.067Z,99238.50
2022-09-15T11:34:52.736Z,99239.25
2022-09-15T11:37:25.387Z,99231.88
2022-09-15T11:39:53.177Z,99231.13
2022-09-15T11:42:31.279Z,99227.56
2022-09-15T11:45:00.189Z,99212.22
2022-09-15T11:47:47.390Z,99211.88
2022-09-15T11:50:20.379Z,99188.44
2022-09-15T11:53:00.272Z,99183.38
2022-09-15T11:55:30.234Z,99169.63
2022-09-15T11:58:08.961Z,99164.84
2022-09-15T12:00:44.918Z,99160.75
2022-09-15T12:03:43.636Z,99153.66
2022-09-15T12:06:30.369Z,99172.13
2022-09-15T12:09:00.833Z,99179.16
2022-09-15T12:11:31.719Z,99169.91
2022-09-15T12:13:59.978Z,99170.31
2022-09-15T12:16:27.950Z,99182.22
2022-09-15T12:19:01.939Z,99187.16
2022-09-15T12:21:49.027Z,99180.97
2022-09-15T12:24:52.998Z,99171.88
2022-09-15T12:27:20.719Z,99167.13
2022-09-15T12:29:49.729Z,99171.28
2022-09-15T12:32:35.168Z,99162.81
2022-09-15T12:35:30.308Z,99165.13
2022-09-15T12:37:58.981Z,99168.66
2022-09-15T12:40:37.956Z,99148.38
2022-09-15T12:43:22.839Z,99152.09
2022-09-15T12:46:01.938Z,99141.09
2022-09-15T12:48:34.699Z,99146.13
2022-09-15T12:51:05.107Z,99147.13
2022-09-15T12:53:37.532Z,99135.75
2022-09-15T12:56:07.489Z,99140.31
2022-09-15T12:58:46.177Z,99149.22
2022-09-15T13:01:19.618Z,99166.00
2022-09-15T13:03:47.261Z,99166.41
2022-09-15T13:06:19.959Z,99148.53
2022-09-15T13:09:01.597Z,99161.44
2022-09-15T13:11:37.103Z,99196.72
2022-09-15T13:14:04.062Z,99217.13
2022-09-15T13:16:35.020Z,99206.25
2022-09-15T13:19:42.394Z,99207.94
2022-09-15T13:22:11.945Z,99212.84
2022-09-15T13:25:13.854Z,99205.00
2022-09-15T13:27:48.316Z,99199.97
2022-09-15T13:30:20.854Z,99188.56
2022-09-15T13:33:25.067Z,99182.25
2022-09-15T13:35:51.936Z,99190.53
2022-09-15T13:38:37.827Z,99208.41
2022-09-15T13:41:10.424Z,99221.59
2022-09-15T13:44:06.874Z,99209.91
2022-09-15T13:46:43.553Z,99191.53
2022-09-15T13:49:38.485Z,99194.03
2022-09-15T13:52:22.525Z,99174.31
2022-09-15T13:55:14.503Z,99182.97
2022-09-15T14:00:55.054Z,99202.09
2022-09-15T14:03:27.494Z,99197.59
2022-09-15T14:05:56.008Z,99177.22
2022-09-15T14:08:26.900Z,99170.16
2022-09-15T14:10:58.261Z,99187.31
2022-09-15T14:13:28.291Z,99203.34
2022-09-15T14:16:23.800Z,99186.00
2022-09-15T14:18:54.107Z,99163.97
2022-09-15T14:21:30.172Z,99154.81
2022-09-15T14:24:02.528Z,99163.53
2022-09-15T14:26:30.811Z,99177.34
2022-09-15T14:29:04.606Z,99178.00
2022-09-15T14:31:41.051Z,99164.97
2022-09-15T14:34:17.018Z,99181.53
2022-09-15T14:36:44.129Z,99197.72
2022-09-15T14:39:22.669Z,99191.88
2022-09-15T14:41:51.027Z,99207.72
2022-09-15T14:47:16.577Z,99238.84
2022-09-15T14:49:43.364Z,99224.09
2022-09-15T14:52:27.109Z,99204.03
2022-09-15T14:54:59.761Z,99205.59
2022-09-15T14:57:31.240Z,99214.09
2022-09-15T15:00:07.004Z,99225.13
2022-09-15T15:02:51.612Z,99236.09
2022-09-15T15:05:45.026Z,99255.00
2022-09-15T15:08:26.003Z,99238.97
2022-09-15T15:10:53.284Z,99222.44
2022-09-15T15:13:21.923Z,99214.09
2022-09-15T15:15:48.936Z,99216.59
2022-09-15T15:18:38.925Z,99226.94
2022-09-15T15:21:26.601Z,99210.44
2022-09-15T15:23:53.774Z,99188.00
2022-09-15T15:26:37.957Z,99184.13
2022-09-15T15:29:28.878Z,99178.19
2022-09-15T15:32:05.604Z,99166.72
2022-09-15T15:34:33.335Z,99165.94
2022-09-15T15:37:04.789Z,99183.03
2022-09-15T15:39:31.963Z,99217.53
2022-09-15T15:42:05.879Z,99232.59
2022-09-15T15:44:33.073Z,99221.91
2022-09-15T15:47:23.880Z,99222.38
2022-09-15T15:50:12.166Z,99214.00
2022-09-15T15:52:41.481Z,99205.03
2022-09-15T15:55:13.429Z,99200.47
2022-09-15T15:57:40.856Z,99190.66
2022-09-15T16:00:21.295Z,99167.63
2022-09-15T16:02:49.216Z,99186.16
2022-09-15T16:05:16.537Z,99182.13
2022-09-15T16:07:46.000Z,99175.16
2022-09-15T16:10:18.657Z,99168.19
2022-09-15T16:12:45.867Z,99149.09
2022-09-15T16:15:14.658Z,99152.56
2022-09-15T16:17:45.938Z,99156.53
2022-09-15T16:20:19.741Z,99139.78
2022-09-15T16:22:46.576Z,99126.31
2022-09-15T16:25:17.381Z,99117.84
2022-09-15T16:27:44.508Z,99118.47
2022-09-15T16:30:14.516Z,99112.34
2022-09-15T16:32:41.387Z,99123.69
2022-09-15T16:35:16.075Z,99130.38
2022-09-15T16:37:42.870Z,99144.41
2022-09-15T16:40:10.092Z,99140.97
2022-09-15T16:42:36.935Z,99130.09
2022-09-15T16:45:15.970Z,99135.63
2022-09-15T16:47:42.884Z,99134.25
2022-09-15T16:50:11.512Z,99144.97
2022-09-15T16:52:38.295Z,99159.63
2022-09-15T16:55:17.202Z,99161.50
2022-09-15T16:57:43.935Z,99161.69
2022-09-15T17:00:11.664Z,99163.50
2022-09-15T17:02:38.471Z,99167.63
2022-09-15T17:05:29.537Z,99168.69
2022-09-15T17:07:56.793Z,99161.00
2022-09-15T17:10:23.735Z,99170.56
2022-09-15T17:12:50.566Z,99173.34
2022-09-15T17:15:24.208Z,99175.91
2022-09-15T17:17:51.085Z,99174.25
2022-09-15T17:20:19.149Z,99170.56
2022-09-15T17:22:48.014Z,99166.91
2022-09-15T17:25:38.584Z,99173.59
2022-09-15T17:28:08.636Z,99173.09
2022-09-15T17:30:35.868Z,99169.75
2022-09-15T17:33:02.628Z,99155.06
2022-09-15T17:35:33.827Z,99152.88
2022-09-15T17:38:00.859Z,99156.59
2022-09-15T17:40:28.537Z,99157.41
2022-09-15T17:42:55.958Z,99145.09
2022-09-15T17:45:34.157Z,99142.59
2022-09-15T17:48:02.928Z,99153.41
2022-09-15T17:50:32.715Z,99150.78
2022-09-15T17:53:00.510Z,99149.56
2022-09-15T17:55:31.763Z,99144.91
2022-09-15T17:58:00.549Z,99148.59
2022-09-15T18:00:30.545Z,99155.28
2022-09-15T18:03:04.256Z,99150.28
2022-09-15T18:05:34.088Z,99149.59
2022-09-15T18:08:03.379Z,99156.78
2022-09-15T18:10:32.127Z,99153.47
2022-09-15T18:12:59.000Z,99139.78
2022-09-15T18:15:29.321Z,99155.09
2022-09-15T18:17:58.848Z,99155.28
2022-09-15T18:20:31.426Z,99157.63
2022-09-15T18:22:59.257Z,99160.47
2022-09-15T18:25:31.805Z,99162.16
2022-09-15T18:27:59.967Z,99167.81
2022-09-15T18:30:31.041Z,99173.16
2022-09-15T18:32:58.952Z,99172.31
2022-09-15T18:35:26.547Z,99170.00
2022-09-15T18:37:56.650Z,99170.97
2022-09-15T18:40:24.010Z,99165.28
2022-09-15T18:42:50.980Z,99158.31
2022-09-15T18:45:19.463Z,99165.59
2022-09-15T18:47:51.163Z,99175.31
2022-09-15T18:50:20.580Z,99184.66
2022-09-15T18:52:47.579Z,99178.66
2022-09-15T18:55:17.623Z,99181.84
2022-09-15T18:57:45.152Z,99189.03
2022-09-15T19:00:20.908Z,99190.16
2022-09-15T19:02:55.406Z,99183.84
2022-09-15T19:05:22.365Z,99188.50
2022-09-15T19:07:49.159Z,99193.53
2022-09-15T19:10:17.392Z,99203.88
2022-09-15T19:12:45.043Z,99208.69
2022-09-15T19:15:13.167Z,99212.31
2022-09-15T19:17:40.584Z,99204.53
2022-09-15T19:20:09.936Z,99202.53
2022-09-15T19:22:37.121Z,99193.03
2022-09-15T19:25:04.816Z,99211.19
2022-09-15T19:27:32.010Z,99197.50
2022-09-15T19:29:58.846Z,99194.03
2022-09-15T19:32:26.079Z,99199.84
2022-09-15T19:34:53.073Z,99217.72
2022-09-15T19:37:21.345Z,99215.19
2022-09-15T19:39:48.720Z,99210.16
2022-09-15T19:44:49.431Z,99212.69
2022-09-15T19:47:16.539Z,99214.03
2022-09-15T19:49:43.848Z,99210.03
2022-09-15T19:52:11.094Z,99208.34
2022-09-15T19:54:38.351Z,99220.53
2022-09-15T19:57:05.372Z,99231.88
2022-09-15T19:59:32.269Z,99230.69
2022-09-15T20:02:01.085Z,99233.34
2022-09-15T20:04:28.880Z,99227.72
2022-09-15T20:06:55.642Z,99221.03
2022-09-15T20:09:22.622Z,99218.53
2022-09-15T20:11:49.395Z,99230.53
2022-09-15T20:14:16.393Z,99237.03
2022-09-15T20:16:43.482Z,99242.22
2022-09-15T20:19:10.575Z,99247.56
2022-09-15T20:21:49.921Z,99239.06
2022-09-15T20:24:19.022Z,99257.06
2022-09-15T20:26:45.763Z,99261.06
2022-09-15T20:29:12.616Z,99252.41
2022-09-15T20:31:40.419Z,99263.56
2022-09-15T20:34:07.561Z,99257.91
2022-09-15T20:36:37.540Z,99250.06
2022-09-15T20:39:09.273Z,99252.88
2022-09-15T20:41:37.006Z,99258.75
2022-09-15T20:44:05.243Z,99266.22
2022-09-15T20:46:32.208Z,99254.72
2022-09-15T20:48:58.952Z,99272.41
2022-09-15T20:51:27.965Z,99274.06
2022-09-15T20:53:57.063Z,99281.09
2022-09-15T20:56:26.142Z,99288.59
2022-09-15T20:58:54.482Z,99283.56
2022-09-15T21:01:24.631Z,99278.56
2022-09-15T21:03:52.039Z,99287.59
2022-09-15T21:06:21.912Z,99284.91
2022-09-15T21:08:50.080Z,99280.06
2022-09-15T21:11:19.372Z,99283.91
2022-09-15T21:13:48.113Z,99295.09
2022-09-15T21:16:20.938Z,99283.72
2022-09-15T21:18:49.039Z,99283.25
2022-09-15T21:21:19.963Z,99289.06
2022-09-15T21:23:54.786Z,99274.06
2022-09-15T21:26:23.842Z,99272.91
2022-09-15T21:28:51.010Z,99275.06
2022-09-15T21:31:23.913Z,99271.91
2022-09-15T21:33:52.274Z,99276.56
2022-09-15T21:36:24.515Z,99279.91
2022-09-15T21:38:54.136Z,99274.91
2022-09-15T21:41:23.641Z,99273.75
2022-09-15T21:43:54.841Z,99274.75
2022-09-15T21:46:24.711Z,99282.06
2022-09-15T21:48:51.812Z,99283.41
2022-09-15T21:51:24.591Z,99294.09
2022-09-15T21:53:56.807Z,99297.72
2022-09-15T21:56:25.295Z,99303.91
2022-09-15T21:58:52.208Z,99316.09
2022-09-15T22:01:25.326Z,99333.94
2022-09-15T22:03:54.943Z,99340.78
2022-09-15T22:06:29.163Z,99337.75
2022-09-15T22:08:56.392Z,99342.59
2022-09-15T22:11:23.425Z,99347.75
2022-09-15T22:13:50.210Z,99351.88
2022-09-15T22:16:22.043Z,99359.09
2022-09-15T22:18:49.565Z,99364.84
2022-09-15T22:21:21.246Z,99374.22
2022-09-15T22:23:49.190Z,99376.22
2022-09-15T22:26:21.960Z,99370.00
2022-09-15T22:28:49.093Z,99358.66
2022-09-15T22:31:18.145Z,99362.50
2022-09-15T22:33:45.632Z,99364.00
2022-09-15T22:36:14.648Z,99375.13
2022-09-15T22:38:42.059Z,99379.78
2022-09-15T22:41:12.157Z,99378.47
2022-09-15T22:43:40.401Z,99386.47
2022-09-15T22:46:08.256Z,99394.28
2022-09-15T22:48:39.653Z,99398.56
2022-09-15T22:51:09.402Z,99398.34
2022-09-15T22:53:36.618Z,99409.97
2022-09-15T22:56:15.180Z,99410.97
2022-09-15T22:58:43.909Z,99404.16
2022-09-15T23:01:13.484Z,99417.94
2022-09-15T23:03:40.576Z,99415.97
2022-09-15T23:06:08.374Z,99418.97
2022-09-15T23:08:36.132Z,99425.31
2022-09-15T23:11:08.461Z,99431.84
2022-09-15T23:13:36.068Z,99447.16
2022-09-15T23:16:03.837Z,99439.47
2022-09-15T23:18:31.454Z,99449.97
2022-09-15T23:21:09.506Z,99444.84
2022-09-15T23:23:38.467Z,99446.06
2022-09-15T23:26:07.953Z,99448.72
2022-09-15T23:28:34.983Z,99460.97
2022-09-15T23:31:02.359Z,99454.97
2022-09-15T23:33:31.474Z,99455.25
2022-09-15T23:36:02.762Z,99464.09
2022-09-15T23:38:29.658Z,99457.25
2022-09-15T23:40:56.772Z,99450.34
2022-09-15T23:43:23.527Z,99451.19
2022-09-15T23:45:51.281Z,99442.47
2022-09-15T23:48:18.528Z,99453.63
2022-09-15T23:50:45.836Z,99459.13
2022-09-15T23:53:12.782Z,99468.44
2022-09-15T23:55:39.759Z,99462.47
2022-09-15T23:58:06.573Z,99466.63
